Airfield :
LOGIN :

Register | Disclaimer

   EN    FR    IT 

 










Legend :    VFR   Marginal VFR   IFR   Intensive IFR   Very Intensive IFR
Visi :
Ceiling :
>= 8 km
>= 3000ft
5 to 8 km
1000 to 3000 ft
1500m to 5 km
500 to 1000 ft
800 to 1500m
200 to 500 ft
< 800m
< 200 ft
Symbols :   Thunderstorms  Fog  Heavy snow  Heavy precipitations  Wind > 20 kt
SIGMETs :     Misc.  Thunderstorms  Icing  Turbulence  Mountain Waves  Volcanic Ashes







- Airport Elevation : 2001 ft
- IATA code : MAD


LEMD - Madrid

CURRENT METAR :
  • 160830Z 00000KT CAVOK 05/01 Q1027 NOSIG

EXPIRED METARs :
  • 160800Z 33002KT CAVOK 01/M00 Q1027 NOSIG
  • 160730Z 33002KT CAVOK 00/M01 Q1027 NOSIG
  • 160700Z 35003KT CAVOK 00/M01 Q1027 NOSIG
  • 160630Z 34004KT CAVOK M00/M01 Q1026 NOSIG
  • 160600Z 01002KT CAVOK 01/M00 Q1026 NOSIG

TAF TAF LEMD
Valid from the 16 at 06:00 until the 17 at 12:00 UTC


160500Z 1606/1712 VRB05KT CAVOK TX18/1616Z TNM02/1707Z
BECMG 1611/1613 14008G18KT
BECMG 1618/1620 VRB05KT
No reported NOTAMs for that airfield.



MET'MAP, your aeronautical weather chart ! - Copyright ORBIFLY December 2007 - Disclaimer

ORBIFLY MET'MAP TEAM :

Programming & Development : Alexandra Zaïnal
Concept & Development : Baudouin d'Aumeries
Co-Development & Prog : Marc-Olivier Méhu
Technical & hardware support : Manuel Goepfert

Contact : metmap@orbifly.com




SOURCES & CREDITS :

   NOAA